Time;durP1;ratioP1;P1;durP2;ratioP2;P2;SDS_P1;SDS_P2;PMS_P1;PMS_P2;Temp;Humidity;BMP_temperature;BMP_pressure;BME280_temperature;BME280_humidity;BME280_pressure;Samples;Min_cycle;Max_cycle;Signal;HPM_P1;HPM_P2
2022/07/11 00:02:20;;;;;;;;;;;;;;;19.46;63.42;100990.28;6103230;23;1879;-94
2022/07/11 00:04:46;;;;;;;;;;;;;;;19.45;63.45;100994.13;6103125;23;1180;-94
2022/07/11 00:07:13;;;;;;;;;;;;;;;19.43;63.52;100980.72;6103237;23;1232;-94
2022/07/11 00:09:39;;;;;;;;;;;;;;;19.42;63.49;100987.28;6102701;23;1258;-94
2022/07/11 00:12:05;;;;;;;;;;;;;;;19.42;63.52;100990.00;6103133;23;1183;-94
2022/07/11 00:14:32;;;;;;;;;;;;;;;19.40;63.24;100980.44;6103230;23;1165;-94
2022/07/11 00:16:58;;;;;;;;;;;;;;;19.37;63.13;100984.50;6104771;23;1182;-95
2022/07/11 00:19:25;;;;;;;;;;;;;;;19.39;63.06;100987.00;6103595;23;1290;-95
2022/07/11 00:21:51;;;;;;;;;;;;;;;19.37;63.19;100987.25;6102669;23;1909;-94
2022/07/11 00:24:19;;;;;;;;;;;;;;;19.35;63.39;100992.16;6101686;23;1220;-94
2022/07/11 00:26:46;;;;;;;;;;;;;;;19.34;62.96;100985.06;6102812;23;1154;-94
2022/07/11 00:29:12;;;;;;;;;;;;;;;19.33;63.27;100980.69;6103851;23;1300;-94
2022/07/11 00:31:38;;;;;;;;;;;;;;;19.32;63.18;100983.69;6103784;23;1262;-94
2022/07/11 00:34:05;;;;;;;;;;;;;;;19.31;63.10;100984.78;6102736;23;1234;-94
2022/07/11 00:36:32;;;;;;;;;;;;;;;19.29;63.06;100983.13;6103242;23;1144;-94
2022/07/11 00:38:58;;;;;;;;;;;;;;;19.28;63.22;100984.22;6103217;23;1297;-94
2022/07/11 00:41:24;;;;;;;;;;;;;;;19.26;62.91;100980.91;6103647;23;1174;-94
2022/07/11 00:43:51;;;;;;;;;;;;;;;19.26;63.14;100986.38;6101865;23;1938;-94
2022/07/11 00:46:17;;;;;;;;;;;;;;;19.25;63.06;100979.28;6103151;23;1276;-94
2022/07/11 00:48:43;;;;;;;;;;;;;;;19.23;62.84;100986.91;6102859;23;1271;-94
2022/07/11 00:51:10;;;;;;;;;;;;;;;19.23;63.16;100980.63;6102177;23;1289;-94
2022/07/11 00:53:37;;;;;;;;;;;;;;;19.21;62.92;100986.38;6101194;23;1527;-95
2022/07/11 00:56:04;;;;;;;;;;;;;;;19.20;63.11;100984.72;6103511;23;1294;-94
2022/07/11 00:58:30;;;;;;;;;;;;;;;19.19;62.86;100985.81;6103417;23;1246;-96
2022/07/11 01:00:57;;;;;;;;;;;;;;;19.18;63.00;100992.38;6102984;23;1295;-94
2022/07/11 01:03:23;;;;;;;;;;;;;;;19.17;63.14;100989.91;6102229;23;1897;-94
2022/07/11 01:05:49;;;;;;;;;;;;;;;19.16;63.00;100997.28;6102270;23;1167;-95
2022/07/11 01:08:16;;;;;;;;;;;;;;;19.15;63.02;100994.78;6102875;23;1114;-94
2022/07/11 01:10:42;;;;;;;;;;;;;;;19.14;62.98;100991.25;6101600;23;1134;-94
2022/07/11 01:13:09;;;;;;;;;;;;;;;19.13;62.95;101005.19;6102749;23;1170;-94
2022/07/11 01:15:35;;;;;;;;;;;;;;;19.12;62.61;100996.16;6102863;23;1245;-94
2022/07/11 01:18:02;;;;;;;;;;;;;;;19.11;62.89;100996.41;6103127;23;1322;-94
2022/07/11 01:20:28;;;;;;;;;;;;;;;19.10;62.94;100997.53;6101680;23;1225;-94
2022/07/11 01:22:56;;;;;;;;;;;;;;;19.08;62.93;100995.03;6102453;23;1936;-94
2022/07/11 01:25:30;;;;;;;;;;;;;;;19.07;62.80;101001.59;6103099;23;1177;-94
2022/07/11 01:27:57;;;;;;;;;;;;;;;19.04;62.96;101005.69;6101641;23;1287;-94
2022/07/11 01:30:23;;;;;;;;;;;;;;;19.02;62.98;100999.66;6102613;23;1219;-94
2022/07/11 01:32:50;;;;;;;;;;;;;;;19.02;62.83;101004.28;6102006;23;1276;-94
2022/07/11 01:35:16;;;;;;;;;;;;;;;19.01;62.79;101008.94;6102488;23;1114;-95
2022/07/11 01:37:42;;;;;;;;;;;;;;;18.99;62.80;101005.63;6102011;23;1174;-94
2022/07/11 01:40:09;;;;;;;;;;;;;;;18.98;62.95;101012.19;6102518;23;1287;-94
2022/07/11 01:42:35;;;;;;;;;;;;;;;18.97;62.74;101001.53;6102134;23;1901;-94
2022/07/11 01:45:01;;;;;;;;;;;;;;;18.96;62.84;101003.44;6103146;23;1340;-94
2022/07/11 01:47:28;;;;;;;;;;;;;;;18.95;62.88;101001.00;6102821;23;1631;-94
2022/07/11 01:49:55;;;;;;;;;;;;;;;18.93;62.60;101008.63;6103042;23;1189;-96
2022/07/11 01:52:21;;;;;;;;;;;;;;;18.93;62.52;101011.34;6102641;23;1143;-94
2022/07/11 01:54:47;;;;;;;;;;;;;;;18.91;62.71;100999.84;6101846;23;1323;-96
2022/07/11 01:57:14;;;;;;;;;;;;;;;18.90;62.66;101011.88;6102737;23;1249;-96
2022/07/11 01:59:40;;;;;;;;;;;;;;;18.89;62.52;101013.78;6102468;23;1242;-96
2022/07/11 02:02:07;;;;;;;;;;;;;;;18.87;62.74;101013.22;6102473;23;1116;-96
2022/07/11 02:04:33;;;;;;;;;;;;;;;18.85;62.72;101001.72;6101889;23;1905;-96
2022/07/11 02:07:00;;;;;;;;;;;;;;;18.84;62.60;101017.28;6103104;23;1138;-96
2022/07/11 02:09:26;;;;;;;;;;;;;;;18.84;62.79;101016.47;6102722;23;1336;-96
2022/07/11 02:11:52;;;;;;;;;;;;;;;18.82;62.66;101021.38;6101769;23;1229;-96
2022/07/11 02:14:19;;;;;;;;;;;;;;;18.81;62.33;101012.38;6102771;23;1356;-96
2022/07/11 02:16:45;;;;;;;;;;;;;;;18.80;62.49;101012.66;6102972;23;1130;-96
2022/07/11 02:19:12;;;;;;;;;;;;;;;18.79;62.66;101002.78;6102161;23;1393;-96
2022/07/11 02:21:38;;;;;;;;;;;;;;;18.77;62.51;101003.06;6102384;23;1170;-96
2022/07/11 02:24:05;;;;;;;;;;;;;;;18.76;62.36;101017.78;6102087;23;1952;-96
2022/07/11 02:26:31;;;;;;;;;;;;;;;18.75;62.70;101007.97;6105117;23;1335;-96
2022/07/11 02:28:57;;;;;;;;;;;;;;;18.73;62.66;100999.22;6110150;23;1219;-93
2022/07/11 02:31:24;;;;;;;;;;;;;;;18.73;62.50;101012.00;6110478;23;1185;-96
2022/07/11 02:33:50;;;;;;;;;;;;;;;18.72;62.43;101021.28;6107174;23;1205;-96
2022/07/11 02:36:17;;;;;;;;;;;;;;;18.70;62.66;101007.06;6102561;23;1188;-96
2022/07/11 02:38:43;;;;;;;;;;;;;;;18.69;62.42;101014.44;6102402;23;1150;-96
2022/07/11 02:41:10;;;;;;;;;;;;;;;18.68;62.42;101003.78;6102822;23;1304;-96
2022/07/11 02:43:36;;;;;;;;;;;;;;;18.66;62.61;101009.50;6102568;23;1960;-96
2022/07/11 02:46:03;;;;;;;;;;;;;;;18.66;62.64;101014.16;6102577;23;1158;-96
2022/07/11 02:48:29;;;;;;;;;;;;;;;18.64;62.33;101017.13;6104296;23;1355;-96
2022/07/11 02:50:55;;;;;;;;;;;;;;;18.63;62.67;101018.22;6103619;23;1179;-96
2022/07/11 02:53:22;;;;;;;;;;;;;;;18.63;62.38;101015.50;6103877;23;1132;-96
2022/07/11 02:55:48;;;;;;;;;;;;;;;18.61;62.42;101023.94;6128481;23;1420;-96
2022/07/11 02:58:15;;;;;;;;;;;;;;;18.60;62.25;101019.56;6128643;23;1164;-96
2022/07/11 03:00:41;;;;;;;;;;;;;;;18.59;62.36;101022.56;6104052;23;1229;-96
2022/07/11 03:03:07;;;;;;;;;;;;;;;18.57;62.44;101020.09;6103150;23;1894;-96
2022/07/11 03:05:34;;;;;;;;;;;;;;;18.57;62.36;101027.44;6103408;23;1194;-96
2022/07/11 03:08:00;;;;;;;;;;;;;;;18.56;62.50;101028.50;6104328;23;1205;-96
2022/07/11 03:10:27;;;;;;;;;;;;;;;18.55;62.40;101030.44;6103090;23;1312;-96
2022/07/11 03:12:53;;;;;;;;;;;;;;;18.55;62.44;101037.78;6103396;23;1244;-96
2022/07/11 03:15:21;;;;;;;;;;;;;;;18.52;62.31;101025.50;6104116;23;1110;-96
2022/07/11 03:17:47;;;;;;;;;;;;;;;18.51;62.19;101029.31;6103595;23;1256;-96
2022/07/11 03:20:14;;;;;;;;;;;;;;;18.50;62.56;101024.09;6103783;23;1418;-96
2022/07/11 03:22:40;;;;;;;;;;;;;;;18.49;62.46;101039.66;6103390;23;1910;-96
2022/07/11 03:25:07;;;;;;;;;;;;;;;18.48;62.28;101035.28;6103439;23;1282;-96
2022/07/11 03:27:34;;;;;;;;;;;;;;;18.47;62.24;101028.22;6104208;23;1268;-96
2022/07/11 03:30:00;;;;;;;;;;;;;;;18.45;62.09;101035.81;6103885;23;1137;-96
2022/07/11 03:32:26;;;;;;;;;;;;;;;18.45;62.30;101029.53;6104311;23;1298;-96
2022/07/11 03:37:33;;;;;;;;;;;;;;;18.44;62.18;101034.16;6126763;23;1194;-96
2022/07/11 03:40:00;;;;;;;;;;;;;;;18.43;62.06;101031.69;6103489;23;1158;-96
2022/07/11 03:42:26;;;;;;;;;;;;;;;18.41;62.33;101031.94;6104046;23;1158;-96
2022/07/11 03:44:52;;;;;;;;;;;;;;;18.40;62.27;101030.31;6103977;23;1898;-96
2022/07/11 03:47:19;;;;;;;;;;;;;;;18.39;62.14;101029.50;6103647;23;1185;-96
2022/07/11 03:49:46;;;;;;;;;;;;;;;18.37;62.12;101034.38;6103703;23;1416;-96
2022/07/11 03:52:12;;;;;;;;;;;;;;;18.36;61.98;101037.38;6102804;23;1317;-96
2022/07/11 03:54:38;;;;;;;;;;;;;;;18.34;62.09;101034.91;6102583;23;1229;-96
2022/07/11 03:57:05;;;;;;;;;;;;;;;18.34;62.02;101026.72;6103480;23;1273;-96
2022/07/11 03:59:31;;;;;;;;;;;;;;;18.33;62.00;101030.53;6103284;23;1340;-96
2022/07/11 04:01:58;;;;;;;;;;;;;;;18.32;61.91;101034.34;6102758;23;1162;-96
2022/07/11 04:04:24;;;;;;;;;;;;;;;18.31;62.05;101038.16;6103301;23;1952;-96
2022/07/11 04:06:50;;;;;;;;;;;;;;;18.31;62.08;101029.97;6103312;23;1236;-94
2022/07/11 04:09:17;;;;;;;;;;;;;;;18.29;62.25;101034.03;6103318;23;1142;-96
2022/07/11 04:11:43;;;;;;;;;;;;;;;18.29;62.04;101042.22;6103851;23;1190;-96
2022/07/11 04:14:10;;;;;;;;;;;;;;;18.26;62.18;101038.09;6103691;23;1217;-96
2022/07/11 04:16:36;;;;;;;;;;;;;;;18.25;62.11;101041.09;6103238;23;1246;-96
2022/07/11 04:19:04;;;;;;;;;;;;;;;18.26;62.07;101043.53;6103078;23;1334;-96
2022/07/11 04:21:30;;;;;;;;;;;;;;;18.26;61.99;101045.44;6103116;23;1270;-96
2022/07/11 04:23:57;;;;;;;;;;;;;;;18.24;61.93;101045.72;6102770;23;1957;-96
2022/07/11 04:26:23;;;;;;;;;;;;;;;18.23;62.22;101038.63;6102337;23;1256;-96
2022/07/11 04:28:49;;;;;;;;;;;;;;;18.21;62.10;101035.34;6103705;23;1209;-96
2022/07/11 04:31:16;;;;;;;;;;;;;;;18.19;61.86;101040.22;6103638;23;1304;-96
2022/07/11 04:33:42;;;;;;;;;;;;;;;18.19;62.19;101037.50;6103937;23;1234;-96
2022/07/11 04:36:09;;;;;;;;;;;;;;;18.18;62.10;101038.59;6103012;23;1163;-96
2022/07/11 04:38:35;;;;;;;;;;;;;;;18.17;62.24;101036.91;6103225;23;1301;-96
2022/07/11 04:41:01;;;;;;;;;;;;;;;18.16;62.04;101038.00;6102392;23;1358;-96
2022/07/11 04:43:28;;;;;;;;;;;;;;;18.15;61.77;101045.38;6103291;23;1939;-96
2022/07/11 04:45:55;;;;;;;;;;;;;;;18.14;62.08;101048.34;6103009;23;1176;-96
2022/07/11 04:48:21;;;;;;;;;;;;;;;18.14;61.77;101048.34;6103355;23;1203;-96
2022/07/11 04:50:48;;;;;;;;;;;;;;;18.12;61.87;101045.91;6102657;23;1219;-96
2022/07/11 04:53:14;;;;;;;;;;;;;;;18.12;62.12;101050.53;6103374;23;1173;-96
2022/07/11 04:55:41;;;;;;;;;;;;;;;18.11;62.12;101054.31;6103014;23;1181;-96
2022/07/11 04:58:08;;;;;;;;;;;;;;;18.09;62.13;101054.59;6102230;23;1165;-96
2022/07/11 05:00:34;;;;;;;;;;;;;;;18.10;61.86;101053.50;6102490;23;1242;-96
2022/07/11 05:03:01;;;;;;;;;;;;;;;18.10;62.04;101055.41;6102768;23;1905;-96
2022/07/11 05:05:27;;;;;;;;;;;;;;;18.09;62.05;101057.31;6103230;23;1367;-94
2022/07/11 05:07:55;;;;;;;;;;;;;;;18.08;61.78;101055.66;6103036;23;1221;-96
2022/07/11 05:10:21;;;;;;;;;;;;;;;18.08;61.73;101063.00;6103035;23;1134;-96
2022/07/11 05:12:47;;;;;;;;;;;;;;;18.07;61.92;101056.75;6103053;23;1251;-96
2022/07/11 05:15:14;;;;;;;;;;;;;;;18.06;62.14;101060.56;6103520;23;1146;-96
2022/07/11 05:17:40;;;;;;;;;;;;;;;18.06;62.00;101057.84;6102246;23;1204;-96
2022/07/11 05:20:07;;;;;;;;;;;;;;;18.05;61.88;101052.63;6103162;23;1368;-96
2022/07/11 05:22:33;;;;;;;;;;;;;;;18.04;61.58;101051.81;6102560;23;1216;-95
2022/07/11 05:25:00;;;;;;;;;;;;;;;18.03;61.95;101054.78;6103097;23;1901;-96
2022/07/11 05:27:26;;;;;;;;;;;;;;;18.03;61.96;101052.91;6103444;23;1185;-96
2022/07/11 05:29:53;;;;;;;;;;;;;;;18.03;61.59;101057.50;6103716;23;1244;-96
2022/07/11 05:32:19;;;;;;;;;;;;;;;18.03;61.87;101054.78;6101908;23;1352;-96
2022/07/11 05:34:45;;;;;;;;;;;;;;;18.03;61.81;101057.50;6100911;23;1161;-96
2022/07/11 05:37:12;;;;;;;;;;;;;;;18.03;61.87;101054.78;6102958;23;1180;-95
2022/07/11 05:39:38;;;;;;;;;;;;;;;18.02;61.81;101058.59;6115669;23;1146;-96
2022/07/11 05:42:06;;;;;;;;;;;;;;;18.02;61.87;101055.88;6105301;23;1277;-95
2022/07/11 05:44:32;;;;;;;;;;;;;;;18.00;61.78;101060.75;6101747;23;1945;-96
2022/07/11 05:46:59;;;;;;;;;;;;;;;18.00;61.80;101058.00;6103745;23;1228;-96
2022/07/11 05:49:26;;;;;;;;;;;;;;;17.99;61.73;101056.38;6104352;23;1250;-96
2022/07/11 05:51:52;;;;;;;;;;;;;;;18.00;61.59;101061.59;6104469;23;1327;-96
2022/07/11 05:54:19;;;;;;;;;;;;;;;17.99;61.56;101059.91;6103574;23;1231;-96
2022/07/11 05:56:45;;;;;;;;;;;;;;;17.99;61.50;101059.91;6103240;23;1280;-96
2022/07/11 05:59:12;;;;;;;;;;;;;;;17.99;61.76;101054.47;6104285;23;1225;-96
2022/07/11 06:01:38;;;;;;;;;;;;;;;17.97;61.73;101056.66;6102650;23;1370;-96
2022/07/11 06:04:04;;;;;;;;;;;;;;;17.97;61.68;101067.56;6103300;23;1905;-96
2022/07/11 06:06:31;;;;;;;;;;;;;;;17.97;61.77;101058.53;6111015;23;1181;-96
2022/07/11 06:08:57;;;;;;;;;;;;;;;17.97;61.68;101066.69;6103883;23;1255;-96
2022/07/11 06:11:24;;;;;;;;;;;;;;;17.97;61.66;101066.69;6103776;23;1263;-96
2022/07/11 06:13:50;;;;;;;;;;;;;;;17.97;61.64;101072.16;6103675;23;1197;-96
2022/07/11 06:16:16;;;;;;;;;;;;;;;17.96;61.68;101074.06;6108046;23;1268;-96
2022/07/11 06:18:49;;;;;;;;;;;;;;;17.96;61.59;101079.50;6103319;23;1299;-96
2022/07/11 06:21:22;;;;;;;;;;;;;;;17.95;61.53;101077.88;6102334;23;1272;-96
2022/07/11 06:23:51;;;;;;;;;;;;;;;17.95;61.55;101074.34;6104296;23;1907;-96
2022/07/11 06:26:18;;;;;;;;;;;;;;;17.94;61.68;101078.94;6104168;23;1268;-96
2022/07/11 06:28:46;;;;;;;;;;;;;;;17.93;61.61;101075.38;6105729;23;1153;-96
2022/07/11 06:31:16;;;;;;;;;;;;;;;17.93;61.56;101071.84;6102798;23;1238;-95
2022/07/11 06:33:43;;;;;;;;;;;;;;;17.92;61.35;101075.66;6105651;23;1185;-95
2022/07/11 06:36:10;;;;;;;;;;;;;;;17.92;61.51;101076.47;6104207;23;1351;-95
2022/07/11 06:38:36;;;;;;;;;;;;;;;17.91;61.39;101074.84;6103456;23;1153;-96
2022/07/11 06:41:02;;;;;;;;;;;;;;;17.93;61.31;101077.28;6103823;23;1251;-94
2022/07/11 06:43:29;;;;;;;;;;;;;;;17.91;61.52;101072.13;6104505;23;1950;-96
2022/07/11 06:45:55;;;;;;;;;;;;;;;17.91;61.32;101071.28;6104400;23;1177;-95
2022/07/11 06:48:22;;;;;;;;;;;;;;;17.92;61.49;101075.66;6104589;23;1326;-94
2022/07/11 06:50:48;;;;;;;;;;;;;;;17.91;61.33;101080.28;6104465;23;1276;-95
2022/07/11 06:53:15;;;;;;;;;;;;;;;17.91;61.27;101079.44;6104060;23;1251;-95
2022/07/11 06:55:41;;;;;;;;;;;;;;;17.91;61.37;101087.63;6104926;23;1211;-95
2022/07/11 06:58:08;;;;;;;;;;;;;;;17.90;61.39;101086.81;6104194;23;1170;-95
2022/07/11 07:00:34;;;;;;;;;;;;;;;17.91;61.48;101083.03;6103978;23;1190;-95
2022/07/11 07:03:01;;;;;;;;;;;;;;;17.91;61.45;101088.47;6104360;23;1383;-95
2022/07/11 07:05:27;;;;;;;;;;;;;;;17.91;61.38;101093.06;6103850;23;1893;-95
2022/07/11 07:07:54;;;;;;;;;;;;;;;17.91;61.26;101102.09;6104480;23;1135;-95
2022/07/11 07:10:20;;;;;;;;;;;;;;;17.89;61.37;101098.78;6104204;23;1138;-95
2022/07/11 07:12:47;;;;;;;;;;;;;;;17.90;61.22;101100.41;6104422;23;1245;-95
2022/07/11 07:15:13;;;;;;;;;;;;;;;17.90;61.30;101099.59;6104003;23;1350;-95
2022/07/11 07:17:39;;;;;;;;;;;;;;;17.90;61.17;101102.34;6104554;23;1609;-95
2022/07/11 07:20:08;;;;;;;;;;;;;;;17.90;61.30;101105.06;6104506;23;1525;-95
2022/07/11 07:22:34;;;;;;;;;;;;;;;17.89;61.15;101097.97;6103598;23;1384;-95
2022/07/11 07:25:00;;;;;;;;;;;;;;;17.89;61.30;101098.78;6103716;23;1917;-95
2022/07/11 07:27:27;;;;;;;;;;;;;;;17.89;61.31;101104.25;6104597;23;1238;-95
2022/07/11 07:29:54;;;;;;;;;;;;;;;17.89;61.27;101095.25;6103815;23;1268;-95
2022/07/11 07:32:20;;;;;;;;;;;;;;;17.88;61.13;101091.69;6103785;23;1177;-95
2022/07/11 07:34:47;;;;;;;;;;;;;;;17.90;61.22;101094.16;6104285;23;1351;-95
2022/07/11 07:37:14;;;;;;;;;;;;;;;17.89;61.29;101100.69;6104302;23;1118;-96
2022/07/11 07:39:40;;;;;;;;;;;;;;;17.88;61.18;101102.59;6104211;23;1070;-95
2022/07/11 07:42:07;;;;;;;;;;;;;;;17.89;61.23;101101.50;6104233;23;1216;-95
2022/07/11 07:44:34;;;;;;;;;;;;;;;17.89;61.24;101106.16;6104151;23;1901;-95
2022/07/11 07:47:00;;;;;;;;;;;;;;;17.89;61.05;101106.97;6104171;23;1290;-95
2022/07/11 07:49:27;;;;;;;;;;;;;;;17.89;61.19;101100.69;6104497;23;1197;-95
2022/07/11 07:51:53;;;;;;;;;;;;;;;17.87;61.28;101100.94;6104359;23;1182;-95
2022/07/11 07:54:19;;;;;;;;;;;;;;;17.88;61.41;101096.31;6103683;23;1264;-95
2022/07/11 07:56:46;;;;;;;;;;;;;;;17.88;61.02;101105.31;6104096;23;1136;-95
2022/07/11 07:59:12;;;;;;;;;;;;;;;17.89;61.28;101108.88;6103681;23;1264;-95
2022/07/11 08:01:40;;;;;;;;;;;;;;;17.90;61.16;101113.22;6103916;23;1271;-95
2022/07/11 08:04:07;;;;;;;;;;;;;;;17.90;61.21;101105.06;6127809;23;1901;-95
2022/07/11 08:06:34;;;;;;;;;;;;;;;17.90;61.17;101105.88;6104533;23;1265;-95
2022/07/11 08:09:00;;;;;;;;;;;;;;;17.89;61.08;101101.50;6128463;23;1185;-95
2022/07/11 08:11:27;;;;;;;;;;;;;;;17.89;61.03;101115.13;6104698;23;1347;-93
2022/07/11 08:13:53;;;;;;;;;;;;;;;17.89;60.91;101106.97;6126268;23;1271;-96
2022/07/11 08:16:20;;;;;;;;;;;;;;;17.91;61.12;101113.00;6128752;23;1237;-95
2022/07/11 08:18:46;;;;;;;;;;;;;;;17.91;61.20;101109.41;6127597;23;1138;-94
2022/07/11 08:21:12;;;;;;;;;;;;;;;17.91;61.12;101106.69;6127914;23;1250;-96
2022/07/11 08:23:39;;;;;;;;;;;;;;;17.92;60.98;101105.63;6101693;23;1166;-94
2022/07/11 08:26:05;;;;;;;;;;;;;;;17.91;61.14;101107.53;6103594;23;1882;-94
2022/07/11 08:28:32;;;;;;;;;;;;;;;17.91;60.93;101101.25;6127366;23;1122;-95
2022/07/11 08:30:58;;;;;;;;;;;;;;;17.92;61.04;101106.44;6128113;23;1292;-95
2022/07/11 08:33:25;;;;;;;;;;;;;;;17.92;61.11;101109.19;6127801;23;1256;-94
2022/07/11 08:35:51;;;;;;;;;;;;;;;17.92;60.80;101111.91;6128290;23;1347;-95
2022/07/11 08:38:17;;;;;;;;;;;;;;;17.91;60.92;101104.81;6127224;23;1337;-95
2022/07/11 08:40:44;;;;;;;;;;;;;;;17.91;61.10;101099.38;6103886;23;1261;-95
2022/07/11 08:43:10;;;;;;;;;;;;;;;17.92;61.03;101102.91;6125255;23;1163;-95
2022/07/11 08:45:37;;;;;;;;;;;;;;;17.92;60.83;101106.44;6127961;23;1886;-94
2022/07/11 08:48:03;;;;;;;;;;;;;;;17.92;60.82;101105.63;6102890;23;1294;-95
2022/07/11 08:50:29;;;;;;;;;;;;;;;17.92;61.04;101103.72;6103823;23;1215;-94
2022/07/11 08:52:56;;;;;;;;;;;;;;;17.92;60.71;101103.72;6127469;23;1240;-95
2022/07/11 08:55:22;;;;;;;;;;;;;;;17.93;61.07;101104.53;6127764;23;1264;-94
2022/07/11 08:57:48;;;;;;;;;;;;;;;17.91;60.79;101102.09;6103335;23;1338;-95
2022/07/11 09:00:15;;;;;;;;;;;;;;;17.94;61.05;101100.72;6102902;23;1221;-94
2022/07/11 09:02:41;;;;;;;;;;;;;;;17.94;61.08;101100.72;6102927;23;1204;-95
2022/07/11 09:05:08;;;;;;;;;;;;;;;17.93;61.06;101108.09;6126635;23;1941;-94
2022/07/11 09:07:34;;;;;;;;;;;;;;;17.94;60.97;101103.44;6126029;23;1206;-94
2022/07/11 09:10:00;;;;;;;;;;;;;;;17.94;61.16;101108.91;6127443;23;1209;-94
2022/07/11 09:12:27;;;;;;;;;;;;;;;17.96;61.01;101114.13;6127598;23;1196;-94
2022/07/11 09:14:54;;;;;;;;;;;;;;;17.95;61.04;101102.41;6103526;23;1141;-94
2022/07/11 09:17:21;;;;;;;;;;;;;;;17.96;60.96;101103.22;6127995;23;1170;-94
2022/07/11 09:19:48;;;;;;;;;;;;;;;17.96;61.00;101106.75;6102553;23;1253;-94
2022/07/11 09:25:29;;;;;;;;;;;;;;;17.97;60.89;101108.44;6068872;23;1901;-94
2022/07/11 09:27:56;;;;;;;;;;;;;;;17.99;61.06;101108.16;6103038;23;1176;-94
2022/07/11 09:30:22;;;;;;;;;;;;;;;17.99;61.12;101102.69;6127688;23;1152;-94
2022/07/11 09:32:50;;;;;;;;;;;;;;;17.99;61.01;101103.53;6126563;23;1141;-95
2022/07/11 09:35:17;;;;;;;;;;;;;;;17.99;61.05;101106.25;6102213;23;1354;-95
2022/07/11 09:37:44;;;;;;;;;;;;;;;18.00;61.31;101107.91;6128174;23;1180;-95
2022/07/11 09:40:11;;;;;;;;;;;;;;;18.00;61.09;101107.91;6128823;23;1231;-95
2022/07/11 09:42:37;;;;;;;;;;;;;;;18.00;61.10;101110.63;6102333;23;1178;-94
2022/07/11 09:45:04;;;;;;;;;;;;;;;18.02;61.08;101110.38;6126641;23;1909;-96
2022/07/11 09:47:30;;;;;;;;;;;;;;;18.03;60.92;101106.56;6126936;23;1276;-95
2022/07/11 09:49:57;;;;;;;;;;;;;;;18.02;61.00;101097.56;6127247;23;1273;-95
2022/07/11 09:52:23;;;;;;;;;;;;;;;18.03;61.12;101104.69;6125422;23;1248;-96
2022/07/11 09:54:49;;;;;;;;;;;;;;;18.03;60.92;101109.28;6102000;23;1119;-95
2022/07/11 09:57:16;;;;;;;;;;;;;;;18.04;61.13;101108.22;6126506;23;1151;-95
2022/07/11 09:59:42;;;;;;;;;;;;;;;18.04;61.17;101097.31;6126390;23;1220;-95
2022/07/11 10:02:10;;;;;;;;;;;;;;;18.05;61.20;101101.69;6142486;23;1307;-95
2022/07/11 10:04:36;;;;;;;;;;;;;;;18.06;61.11;101100.59;6097717;23;1940;-95
2022/07/11 10:07:03;;;;;;;;;;;;;;;18.07;61.01;101096.81;6098170;23;1275;-94
2022/07/11 10:09:30;;;;;;;;;;;;;;;18.07;61.13;101092.16;6097824;23;1151;-95
2022/07/11 10:11:56;;;;;;;;;;;;;;;18.07;60.97;101083.19;6097903;23;1366;-95
2022/07/11 10:14:22;;;;;;;;;;;;;;;18.07;60.88;101089.44;6098009;23;1317;-96
2022/07/11 10:16:49;;;;;;;;;;;;;;;18.08;61.01;101092.97;6097719;23;1245;-95
2022/07/11 10:19:15;;;;;;;;;;;;;;;18.08;61.02;101082.91;6098130;23;1288;-95
2022/07/11 10:21:42;;;;;;;;;;;;;;;18.09;61.05;101095.47;6099991;23;1306;-95
2022/07/11 10:24:08;;;;;;;;;;;;;;;18.10;61.13;101091.66;6097963;23;1260;-95
2022/07/11 10:26:35;;;;;;;;;;;;;;;18.11;61.07;101087.03;6098424;23;1901;-95
2022/07/11 10:29:01;;;;;;;;;;;;;;;18.11;61.20;101089.75;6098126;23;1255;-95
2022/07/11 10:31:28;;;;;;;;;;;;;;;18.11;61.01;101087.84;6097788;23;1339;-95
2022/07/11 10:33:54;;;;;;;;;;;;;;;18.12;61.06;101088.69;6097439;23;1161;-96
2022/07/11 10:36:20;;;;;;;;;;;;;;;18.13;60.92;101090.31;6097623;23;1615;-94
2022/07/11 10:38:47;;;;;;;;;;;;;;;18.14;60.97;101092.78;6097703;23;1356;-95
2022/07/11 10:41:13;;;;;;;;;;;;;;;18.14;61.01;101089.22;6098174;23;1249;-95
2022/07/11 10:43:41;;;;;;;;;;;;;;;18.14;61.06;101090.06;6096000;23;1184;-95
2022/07/11 10:46:07;;;;;;;;;;;;;;;18.16;61.14;101084.34;6097267;23;1946;-95
2022/07/11 10:48:34;;;;;;;;;;;;;;;18.16;60.99;101087.09;6097026;23;1109;-95
2022/07/11 10:51:00;;;;;;;;;;;;;;;18.17;61.20;101092.25;6098085;23;1129;-95
2022/07/11 10:53:27;;;;;;;;;;;;;;;18.19;61.22;101088.47;6097941;23;1267;-95
2022/07/11 10:55:53;;;;;;;;;;;;;;;18.19;60.95;101085.75;6098643;23;1178;-95
2022/07/11 10:58:20;;;;;;;;;;;;;;;18.19;61.38;101086.56;6097673;23;1208;-95
2022/07/11 11:00:46;;;;;;;;;;;;;;;18.21;61.14;101089.06;6097174;23;1272;-95
2022/07/11 11:03:13;;;;;;;;;;;;;;;18.20;61.15;101085.47;6073813;23;1283;-95
2022/07/11 11:05:39;;;;;;;;;;;;;;;18.21;61.10;101084.41;6073987;23;1905;-95
2022/07/11 11:08:06;;;;;;;;;;;;;;;18.22;61.20;101088.78;6075082;23;1267;-95
2022/07/11 11:10:34;;;;;;;;;;;;;;;18.24;61.23;101083.06;6075205;23;1317;-95
2022/07/11 11:13:00;;;;;;;;;;;;;;;18.25;61.20;101087.44;6075400;23;1287;-95
2022/07/11 11:15:27;;;;;;;;;;;;;;;18.27;61.19;101088.84;6075435;23;1246;-94
2022/07/11 11:17:53;;;;;;;;;;;;;;;18.27;61.33;101091.56;6099397;23;1373;-96
2022/07/11 11:20:19;;;;;;;;;;;;;;;18.25;61.14;101088.25;6075122;23;1256;-95
2022/07/11 11:22:46;;;;;;;;;;;;;;;18.27;61.16;101083.38;6075292;23;1364;-95
2022/07/11 11:25:12;;;;;;;;;;;;;;;18.29;61.03;101088.56;6075969;23;2006;-96
2022/07/11 11:27:38;;;;;;;;;;;;;;;18.29;61.34;101092.09;6075208;23;1312;-95
2022/07/11 11:30:05;;;;;;;;;;;;;;;18.30;61.38;101090.22;6075042;23;1250;-94
2022/07/11 11:32:31;;;;;;;;;;;;;;;18.33;61.43;101089.72;6075371;23;1326;-95
2022/07/11 11:34:58;;;;;;;;;;;;;;;18.33;61.26;101087.78;6075498;23;1472;-95
2022/07/11 11:37:24;;;;;;;;;;;;;;;18.34;61.21;101088.63;6075532;23;1126;-95
2022/07/11 11:39:50;;;;;;;;;;;;;;;18.34;61.35;101083.97;6075640;23;1217;-95
2022/07/11 11:42:17;;;;;;;;;;;;;;;18.36;61.24;101086.47;6074764;23;1181;-95
2022/07/11 11:44:44;;;;;;;;;;;;;;;18.36;61.27;101081.00;6075106;23;1372;-95
2022/07/11 11:47:10;;;;;;;;;;;;;;;18.38;61.43;101081.56;6075120;23;1910;-95
2022/07/11 11:49:36;;;;;;;;;;;;;;;18.39;61.53;101066.84;6075589;23;1179;-95
2022/07/11 11:52:03;;;;;;;;;;;;;;;18.42;61.57;101074.50;6075463;23;1340;-95
2022/07/11 11:54:29;;;;;;;;;;;;;;;18.43;61.66;101075.34;6074924;23;1330;-95
2022/07/11 11:56:58;;;;;;;;;;;;;;;18.43;61.52;101069.88;6074743;23;1148;-95
2022/07/11 11:59:24;;;;;;;;;;;;;;;18.46;61.39;101069.34;6099095;23;1221;-95
2022/07/11 12:01:51;;;;;;;;;;;;;;;18.44;61.57;101072.34;6097210;23;1148;-95
2022/07/11 12:04:17;;;;;;;;;;;;;;;18.45;61.74;101068.53;6103572;23;1260;-95
2022/07/11 12:06:43;;;;;;;;;;;;;;;18.46;61.19;101074.81;6103413;23;1905;-95
2022/07/11 12:09:10;;;;;;;;;;;;;;;18.47;61.42;101071.84;6103856;23;1273;-95
2022/07/11 12:11:36;;;;;;;;;;;;;;;18.48;61.49;101067.19;6103439;23;1293;-95
2022/07/11 12:14:03;;;;;;;;;;;;;;;18.50;61.77;101073.19;6103290;23;1273;-96
2022/07/11 12:16:42;;;;;;;;;;;;;;;18.52;61.72;101071.03;6103409;23;1173;-95
2022/07/11 12:19:08;;;;;;;;;;;;;;;18.54;61.63;101074.34;6103087;23;1360;-95
2022/07/11 12:21:35;;;;;;;;;;;;;;;18.54;61.61;101077.06;6103550;23;1189;-95
2022/07/11 12:24:05;;;;;;;;;;;;;;;18.55;61.60;101068.63;6103410;23;1193;-96
2022/07/11 12:26:32;;;;;;;;;;;;;;;18.57;61.57;101076.56;6103399;23;1905;-95
2022/07/11 12:28:58;;;;;;;;;;;;;;;18.57;61.93;101069.19;6128173;23;1177;-95
2022/07/11 12:31:25;;;;;;;;;;;;;;;18.59;61.64;101068.94;6103270;23;1240;-95
2022/07/11 12:33:51;;;;;;;;;;;;;;;18.61;61.92;101077.66;6103155;23;1278;-95
2022/07/11 12:36:17;;;;;;;;;;;;;;;18.62;61.73;101073.88;6103367;23;1314;-95
2022/07/11 12:38:44;;;;;;;;;;;;;;;18.63;61.88;101070.06;6103564;23;1278;-95
2022/07/11 12:41:10;;;;;;;;;;;;;;;18.63;61.74;101067.31;6103541;23;1178;-95
2022/07/11 12:46:17;;;;;;;;;;;;;;;18.67;61.56;101064.88;6101892;23;1905;-95
2022/07/11 12:48:43;;;;;;;;;;;;;;;18.67;61.89;101065.69;6103617;23;1284;-95
2022/07/11 12:51:10;;;;;;;;;;;;;;;18.69;61.78;101066.28;6103365;23;1239;-95
2022/07/11 12:53:36;;;;;;;;;;;;;;;18.70;61.74;101075.28;6103223;23;1203;-95